sensor_id;sensor_type;location;lat;lon;timestamp;P1;durP1;ratioP1;P2;durP2;ratioP2
11305;SDS011;5708;50.660;6.778;2024-02-26T00:01:39;3.00;;;1.38;;
11305;SDS011;5708;50.660;6.778;2024-02-26T00:04:05;2.35;;;1.20;;
11305;SDS011;5708;50.660;6.778;2024-02-26T00:06:30;5.22;;;1.60;;
11305;SDS011;5708;50.660;6.778;2024-02-26T00:08:56;3.83;;;1.42;;
11305;SDS011;5708;50.660;6.778;2024-02-26T00:11:21;2.90;;;1.40;;
11305;SDS011;5708;50.660;6.778;2024-02-26T00:13:46;3.90;;;1.30;;
11305;SDS011;5708;50.660;6.778;2024-02-26T00:16:11;5.28;;;1.58;;
11305;SDS011;5708;50.660;6.778;2024-02-26T00:18:37;3.15;;;1.20;;
11305;SDS011;5708;50.660;6.778;2024-02-26T00:21:02;4.53;;;1.42;;
11305;SDS011;5708;50.660;6.778;2024-02-26T00:23:28;4.63;;;1.30;;
11305;SDS011;5708;50.660;6.778;2024-02-26T00:25:53;3.53;;;1.35;;
11305;SDS011;5708;50.660;6.778;2024-02-26T00:28:20;3.30;;;1.48;;
11305;SDS011;5708;50.660;6.778;2024-02-26T00:30:46;3.00;;;1.20;;
11305;SDS011;5708;50.660;6.778;2024-02-26T00:33:11;4.60;;;1.27;;
11305;SDS011;5708;50.660;6.778;2024-02-26T00:35:37;3.58;;;1.25;;
11305;SDS011;5708;50.660;6.778;2024-02-26T00:38:02;3.72;;;1.27;;
11305;SDS011;5708;50.660;6.778;2024-02-26T00:40:28;3.08;;;1.50;;
11305;SDS011;5708;50.660;6.778;2024-02-26T00:42:54;4.88;;;1.20;;
11305;SDS011;5708;50.660;6.778;2024-02-26T00:45:19;3.30;;;1.20;;
11305;SDS011;5708;50.660;6.778;2024-02-26T00:47:44;4.15;;;1.30;;
11305;SDS011;5708;50.660;6.778;2024-02-26T00:50:12;3.28;;;1.30;;
11305;SDS011;5708;50.660;6.778;2024-02-26T00:52:37;2.65;;;1.15;;
11305;SDS011;5708;50.660;6.778;2024-02-26T00:55:03;4.10;;;1.10;;
11305;SDS011;5708;50.660;6.778;2024-02-26T00:57:28;3.03;;;1.23;;
11305;SDS011;5708;50.660;6.778;2024-02-26T00:59:53;3.30;;;1.27;;
11305;SDS011;5708;50.660;6.778;2024-02-26T01:02:21;1.60;;;0.98;;
11305;SDS011;5708;50.660;6.778;2024-02-26T01:04:46;2.60;;;1.17;;
11305;SDS011;5708;50.660;6.778;2024-02-26T01:07:12;2.45;;;1.25;;
11305;SDS011;5708;50.660;6.778;2024-02-26T01:09:37;2.28;;;1.27;;
11305;SDS011;5708;50.660;6.778;2024-02-26T01:12:02;2.28;;;1.10;;
11305;SDS011;5708;50.660;6.778;2024-02-26T01:14:28;3.25;;;1.20;;
11305;SDS011;5708;50.660;6.778;2024-02-26T01:16:53;2.30;;;1.10;;
11305;SDS011;5708;50.660;6.778;2024-02-26T01:19:19;2.95;;;1.25;;
11305;SDS011;5708;50.660;6.778;2024-02-26T01:21:44;4.18;;;1.35;;
11305;SDS011;5708;50.660;6.778;2024-02-26T01:24:09;3.03;;;1.27;;
11305;SDS011;5708;50.660;6.778;2024-02-26T01:26:35;2.90;;;1.15;;
11305;SDS011;5708;50.660;6.778;2024-02-26T01:29:00;3.50;;;1.45;;
11305;SDS011;5708;50.660;6.778;2024-02-26T01:31:26;3.30;;;1.38;;
11305;SDS011;5708;50.660;6.778;2024-02-26T01:33:51;2.83;;;1.30;;
11305;SDS011;5708;50.660;6.778;2024-02-26T01:36:17;4.22;;;1.50;;
11305;SDS011;5708;50.660;6.778;2024-02-26T01:38:42;3.38;;;1.27;;
11305;SDS011;5708;50.660;6.778;2024-02-26T01:41:08;3.45;;;1.40;;
11305;SDS011;5708;50.660;6.778;2024-02-26T01:43:33;3.60;;;1.60;;
11305;SDS011;5708;50.660;6.778;2024-02-26T01:45:58;2.35;;;1.27;;
11305;SDS011;5708;50.660;6.778;2024-02-26T01:48:24;3.38;;;1.15;;
11305;SDS011;5708;50.660;6.778;2024-02-26T01:50:50;4.20;;;1.30;;
11305;SDS011;5708;50.660;6.778;2024-02-26T01:53:16;3.78;;;2.20;;
11305;SDS011;5708;50.660;6.778;2024-02-26T01:55:42;3.38;;;1.40;;
11305;SDS011;5708;50.660;6.778;2024-02-26T01:58:07;3.72;;;1.20;;
11305;SDS011;5708;50.660;6.778;2024-02-26T02:00:33;1.95;;;1.15;;
11305;SDS011;5708;50.660;6.778;2024-02-26T02:02:58;3.45;;;1.23;;
11305;SDS011;5708;50.660;6.778;2024-02-26T02:05:26;3.17;;;1.35;;
11305;SDS011;5708;50.660;6.778;2024-02-26T02:07:51;4.60;;;1.45;;
11305;SDS011;5708;50.660;6.778;2024-02-26T02:10:17;2.25;;;1.30;;
11305;SDS011;5708;50.660;6.778;2024-02-26T02:12:47;3.00;;;1.35;;
11305;SDS011;5708;50.660;6.778;2024-02-26T02:15:13;2.83;;;1.25;;
11305;SDS011;5708;50.660;6.778;2024-02-26T02:17:38;2.58;;;1.40;;
11305;SDS011;5708;50.660;6.778;2024-02-26T02:20:07;2.67;;;1.25;;
11305;SDS011;5708;50.660;6.778;2024-02-26T02:22:33;2.00;;;1.13;;
11305;SDS011;5708;50.660;6.778;2024-02-26T02:24:58;3.53;;;1.30;;
11305;SDS011;5708;50.660;6.778;2024-02-26T02:27:24;3.50;;;1.20;;
11305;SDS011;5708;50.660;6.778;2024-02-26T02:29:49;5.05;;;1.17;;
11305;SDS011;5708;50.660;6.778;2024-02-26T02:32:15;4.15;;;1.33;;
11305;SDS011;5708;50.660;6.778;2024-02-26T02:34:41;3.45;;;1.27;;
11305;SDS011;5708;50.660;6.778;2024-02-26T02:37:06;3.58;;;1.20;;
11305;SDS011;5708;50.660;6.778;2024-02-26T02:39:31;2.80;;;1.25;;
11305;SDS011;5708;50.660;6.778;2024-02-26T02:41:57;3.03;;;1.40;;
11305;SDS011;5708;50.660;6.778;2024-02-26T02:44:22;4.63;;;1.40;;
11305;SDS011;5708;50.660;6.778;2024-02-26T02:46:47;3.53;;;1.58;;
11305;SDS011;5708;50.660;6.778;2024-02-26T02:49:13;3.42;;;1.33;;
11305;SDS011;5708;50.660;6.778;2024-02-26T02:51:39;3.65;;;1.40;;
11305;SDS011;5708;50.660;6.778;2024-02-26T02:54:04;3.47;;;1.58;;
11305;SDS011;5708;50.660;6.778;2024-02-26T02:56:29;2.80;;;1.35;;
11305;SDS011;5708;50.660;6.778;2024-02-26T02:58:55;4.05;;;1.70;;
11305;SDS011;5708;50.660;6.778;2024-02-26T03:01:20;3.63;;;1.65;;
11305;SDS011;5708;50.660;6.778;2024-02-26T03:03:45;4.32;;;1.52;;
11305;SDS011;5708;50.660;6.778;2024-02-26T03:06:11;2.92;;;1.20;;
11305;SDS011;5708;50.660;6.778;2024-02-26T03:08:36;4.53;;;1.52;;
11305;SDS011;5708;50.660;6.778;2024-02-26T03:11:03;3.28;;;1.13;;
11305;SDS011;5708;50.660;6.778;2024-02-26T03:13:29;4.13;;;1.48;;
11305;SDS011;5708;50.660;6.778;2024-02-26T03:15:54;2.67;;;1.38;;
11305;SDS011;5708;50.660;6.778;2024-02-26T03:18:19;1.95;;;1.08;;
11305;SDS011;5708;50.660;6.778;2024-02-26T03:20:45;2.80;;;1.38;;
11305;SDS011;5708;50.660;6.778;2024-02-26T03:23:10;4.10;;;1.40;;
11305;SDS011;5708;50.660;6.778;2024-02-26T03:25:37;4.65;;;1.67;;
11305;SDS011;5708;50.660;6.778;2024-02-26T03:28:03;3.72;;;1.50;;
11305;SDS011;5708;50.660;6.778;2024-02-26T03:30:28;3.08;;;1.45;;
11305;SDS011;5708;50.660;6.778;2024-02-26T03:32:54;3.85;;;1.40;;
11305;SDS011;5708;50.660;6.778;2024-02-26T03:35:19;3.08;;;1.48;;
11305;SDS011;5708;50.660;6.778;2024-02-26T03:37:45;3.20;;;1.40;;
11305;SDS011;5708;50.660;6.778;2024-02-26T03:40:11;2.30;;;1.20;;
11305;SDS011;5708;50.660;6.778;2024-02-26T03:42:39;2.55;;;1.42;;
11305;SDS011;5708;50.660;6.778;2024-02-26T03:45:04;2.40;;;1.33;;
11305;SDS011;5708;50.660;6.778;2024-02-26T03:47:30;4.75;;;1.70;;
11305;SDS011;5708;50.660;6.778;2024-02-26T03:49:56;2.22;;;1.20;;
11305;SDS011;5708;50.660;6.778;2024-02-26T03:52:21;2.50;;;1.20;;
11305;SDS011;5708;50.660;6.778;2024-02-26T03:54:46;2.10;;;1.15;;
11305;SDS011;5708;50.660;6.778;2024-02-26T03:57:12;3.30;;;1.40;;
11305;SDS011;5708;50.660;6.778;2024-02-26T03:59:37;2.67;;;1.15;;
11305;SDS011;5708;50.660;6.778;2024-02-26T04:02:02;3.45;;;1.23;;
11305;SDS011;5708;50.660;6.778;2024-02-26T04:04:28;4.47;;;1.40;;
11305;SDS011;5708;50.660;6.778;2024-02-26T04:06:53;2.13;;;1.08;;
11305;SDS011;5708;50.660;6.778;2024-02-26T04:09:19;2.33;;;1.08;;
11305;SDS011;5708;50.660;6.778;2024-02-26T04:11:44;1.95;;;1.30;;
11305;SDS011;5708;50.660;6.778;2024-02-26T04:14:09;3.22;;;1.38;;
11305;SDS011;5708;50.660;6.778;2024-02-26T04:16:36;3.28;;;1.40;;
11305;SDS011;5708;50.660;6.778;2024-02-26T04:19:02;2.78;;;1.20;;
11305;SDS011;5708;50.660;6.778;2024-02-26T04:21:27;3.60;;;1.27;;
11305;SDS011;5708;50.660;6.778;2024-02-26T04:23:52;2.17;;;1.30;;
11305;SDS011;5708;50.660;6.778;2024-02-26T04:26:20;2.65;;;1.08;;
11305;SDS011;5708;50.660;6.778;2024-02-26T04:28:46;2.05;;;1.17;;
11305;SDS011;5708;50.660;6.778;2024-02-26T04:31:11;3.03;;;1.23;;
11305;SDS011;5708;50.660;6.778;2024-02-26T04:33:37;3.53;;;1.23;;
11305;SDS011;5708;50.660;6.778;2024-02-26T04:36:02;2.90;;;1.20;;
11305;SDS011;5708;50.660;6.778;2024-02-26T04:38:28;1.90;;;1.20;;
11305;SDS011;5708;50.660;6.778;2024-02-26T04:40:53;2.90;;;1.00;;
11305;SDS011;5708;50.660;6.778;2024-02-26T04:43:18;2.10;;;1.08;;
11305;SDS011;5708;50.660;6.778;2024-02-26T04:45:44;3.42;;;1.05;;
11305;SDS011;5708;50.660;6.778;2024-02-26T04:48:09;2.53;;;1.10;;
11305;SDS011;5708;50.660;6.778;2024-02-26T04:50:35;1.85;;;1.00;;
11305;SDS011;5708;50.660;6.778;2024-02-26T04:53:00;2.47;;;1.10;;
11305;SDS011;5708;50.660;6.778;2024-02-26T04:55:25;2.25;;;1.20;;
11305;SDS011;5708;50.660;6.778;2024-02-26T04:57:50;2.50;;;1.20;;
11305;SDS011;5708;50.660;6.778;2024-02-26T05:00:16;4.18;;;1.17;;
11305;SDS011;5708;50.660;6.778;2024-02-26T05:02:42;4.55;;;1.50;;
11305;SDS011;5708;50.660;6.778;2024-02-26T05:05:07;5.65;;;2.05;;
11305;SDS011;5708;50.660;6.778;2024-02-26T05:07:33;4.07;;;1.60;;
11305;SDS011;5708;50.660;6.778;2024-02-26T05:09:59;3.97;;;1.42;;
11305;SDS011;5708;50.660;6.778;2024-02-26T05:12:24;4.28;;;1.42;;
11305;SDS011;5708;50.660;6.778;2024-02-26T05:14:50;5.30;;;1.50;;
11305;SDS011;5708;50.660;6.778;2024-02-26T05:17:15;3.15;;;1.60;;
11305;SDS011;5708;50.660;6.778;2024-02-26T05:19:40;3.00;;;1.55;;
11305;SDS011;5708;50.660;6.778;2024-02-26T05:22:06;3.92;;;1.60;;
11305;SDS011;5708;50.660;6.778;2024-02-26T05:24:31;3.40;;;1.70;;
11305;SDS011;5708;50.660;6.778;2024-02-26T05:26:56;5.32;;;1.55;;
11305;SDS011;5708;50.660;6.778;2024-02-26T05:29:22;4.47;;;1.75;;
11305;SDS011;5708;50.660;6.778;2024-02-26T05:31:47;3.95;;;1.88;;
11305;SDS011;5708;50.660;6.778;2024-02-26T05:34:12;3.95;;;1.80;;
11305;SDS011;5708;50.660;6.778;2024-02-26T05:36:37;4.13;;;2.08;;
11305;SDS011;5708;50.660;6.778;2024-02-26T05:39:03;5.88;;;2.35;;
11305;SDS011;5708;50.660;6.778;2024-02-26T05:41:29;6.10;;;2.60;;
11305;SDS011;5708;50.660;6.778;2024-02-26T05:43:54;4.45;;;2.35;;
11305;SDS011;5708;50.660;6.778;2024-02-26T05:46:20;5.32;;;2.28;;
11305;SDS011;5708;50.660;6.778;2024-02-26T05:48:50;4.25;;;2.58;;
11305;SDS011;5708;50.660;6.778;2024-02-26T05:51:16;5.53;;;2.88;;
11305;SDS011;5708;50.660;6.778;2024-02-26T05:53:41;5.85;;;3.00;;
11305;SDS011;5708;50.660;6.778;2024-02-26T05:56:06;6.13;;;2.90;;
11305;SDS011;5708;50.660;6.778;2024-02-26T05:58:32;4.72;;;2.58;;
11305;SDS011;5708;50.660;6.778;2024-02-26T06:00:57;6.93;;;2.88;;
11305;SDS011;5708;50.660;6.778;2024-02-26T06:03:23;5.25;;;2.53;;
11305;SDS011;5708;50.660;6.778;2024-02-26T06:05:48;4.13;;;2.33;;
11305;SDS011;5708;50.660;6.778;2024-02-26T06:08:13;4.60;;;2.40;;
11305;SDS011;5708;50.660;6.778;2024-02-26T06:10:39;5.72;;;2.78;;
11305;SDS011;5708;50.660;6.778;2024-02-26T06:13:04;3.47;;;2.30;;
11305;SDS011;5708;50.660;6.778;2024-02-26T06:15:29;5.43;;;2.17;;
11305;SDS011;5708;50.660;6.778;2024-02-26T06:17:55;4.50;;;2.25;;
11305;SDS011;5708;50.660;6.778;2024-02-26T06:20:20;6.63;;;2.50;;
11305;SDS011;5708;50.660;6.778;2024-02-26T06:22:45;4.03;;;2.28;;
11305;SDS011;5708;50.660;6.778;2024-02-26T06:25:11;6.85;;;2.75;;
11305;SDS011;5708;50.660;6.778;2024-02-26T06:27:36;6.35;;;3.25;;
11305;SDS011;5708;50.660;6.778;2024-02-26T06:30:01;8.00;;;2.53;;
11305;SDS011;5708;50.660;6.778;2024-02-26T06:32:27;4.60;;;2.70;;
11305;SDS011;5708;50.660;6.778;2024-02-26T06:34:54;5.65;;;2.60;;
11305;SDS011;5708;50.660;6.778;2024-02-26T06:37:19;6.00;;;3.15;;
11305;SDS011;5708;50.660;6.778;2024-02-26T06:39:44;5.75;;;2.33;;
11305;SDS011;5708;50.660;6.778;2024-02-26T06:42:09;7.07;;;2.60;;
11305;SDS011;5708;50.660;6.778;2024-02-26T06:44:35;6.13;;;2.75;;
11305;SDS011;5708;50.660;6.778;2024-02-26T06:47:00;4.50;;;2.50;;
11305;SDS011;5708;50.660;6.778;2024-02-26T06:49:26;4.90;;;2.60;;
11305;SDS011;5708;50.660;6.778;2024-02-26T06:51:51;5.55;;;2.90;;
11305;SDS011;5708;50.660;6.778;2024-02-26T06:54:17;5.75;;;2.72;;
11305;SDS011;5708;50.660;6.778;2024-02-26T06:56:42;5.00;;;2.40;;
11305;SDS011;5708;50.660;6.778;2024-02-26T06:59:08;7.93;;;2.50;;
11305;SDS011;5708;50.660;6.778;2024-02-26T07:01:33;5.55;;;2.60;;
11305;SDS011;5708;50.660;6.778;2024-02-26T07:03:58;5.00;;;2.60;;
11305;SDS011;5708;50.660;6.778;2024-02-26T07:06:24;5.78;;;2.42;;
11305;SDS011;5708;50.660;6.778;2024-02-26T07:08:49;5.00;;;2.60;;
11305;SDS011;5708;50.660;6.778;2024-02-26T07:11:15;4.47;;;2.55;;
11305;SDS011;5708;50.660;6.778;2024-02-26T07:13:40;6.25;;;2.60;;
11305;SDS011;5708;50.660;6.778;2024-02-26T07:16:05;6.40;;;2.63;;
11305;SDS011;5708;50.660;6.778;2024-02-26T07:18:31;4.65;;;2.47;;
11305;SDS011;5708;50.660;6.778;2024-02-26T07:20:56;6.40;;;2.60;;
11305;SDS011;5708;50.660;6.778;2024-02-26T07:23:21;3.63;;;2.38;;
11305;SDS011;5708;50.660;6.778;2024-02-26T07:25:47;4.20;;;2.60;;
11305;SDS011;5708;50.660;6.778;2024-02-26T07:28:14;5.10;;;2.80;;
11305;SDS011;5708;50.660;6.778;2024-02-26T07:30:39;7.40;;;3.63;;
11305;SDS011;5708;50.660;6.778;2024-02-26T07:33:04;5.25;;;3.30;;
11305;SDS011;5708;50.660;6.778;2024-02-26T07:35:30;5.15;;;2.88;;
11305;SDS011;5708;50.660;6.778;2024-02-26T07:37:56;7.22;;;3.50;;
11305;SDS011;5708;50.660;6.778;2024-02-26T07:40:21;5.90;;;2.80;;
11305;SDS011;5708;50.660;6.778;2024-02-26T07:42:46;6.60;;;3.22;;
11305;SDS011;5708;50.660;6.778;2024-02-26T07:45:12;6.45;;;2.90;;
11305;SDS011;5708;50.660;6.778;2024-02-26T07:47:37;7.13;;;3.33;;
11305;SDS011;5708;50.660;6.778;2024-02-26T07:50:06;7.90;;;3.08;;
11305;SDS011;5708;50.660;6.778;2024-02-26T07:52:32;6.60;;;2.85;;
11305;SDS011;5708;50.660;6.778;2024-02-26T07:54:57;6.47;;;3.42;;
11305;SDS011;5708;50.660;6.778;2024-02-26T07:57:23;7.45;;;3.13;;
11305;SDS011;5708;50.660;6.778;2024-02-26T07:59:48;5.85;;;3.08;;
11305;SDS011;5708;50.660;6.778;2024-02-26T08:02:15;6.10;;;3.47;;
11305;SDS011;5708;50.660;6.778;2024-02-26T08:04:40;6.28;;;2.67;;
11305;SDS011;5708;50.660;6.778;2024-02-26T08:07:06;5.47;;;3.20;;
11305;SDS011;5708;50.660;6.778;2024-02-26T08:09:31;7.47;;;3.38;;
11305;SDS011;5708;50.660;6.778;2024-02-26T08:11:56;6.70;;;3.28;;
11305;SDS011;5708;50.660;6.778;2024-02-26T08:14:21;6.63;;;3.75;;
11305;SDS011;5708;50.660;6.778;2024-02-26T08:16:47;8.32;;;4.05;;
11305;SDS011;5708;50.660;6.778;2024-02-26T08:19:12;9.23;;;3.80;;
11305;SDS011;5708;50.660;6.778;2024-02-26T08:21:40;9.60;;;3.67;;
11305;SDS011;5708;50.660;6.778;2024-02-26T08:24:05;8.95;;;4.20;;
11305;SDS011;5708;50.660;6.778;2024-02-26T08:26:30;8.00;;;4.00;;
11305;SDS011;5708;50.660;6.778;2024-02-26T08:28:56;10.73;;;3.80;;
11305;SDS011;5708;50.660;6.778;2024-02-26T08:31:22;8.90;;;3.83;;
11305;SDS011;5708;50.660;6.778;2024-02-26T08:33:48;10.80;;;3.88;;
11305;SDS011;5708;50.660;6.778;2024-02-26T08:36:13;6.28;;;3.40;;
11305;SDS011;5708;50.660;6.778;2024-02-26T08:38:39;7.25;;;3.75;;
11305;SDS011;5708;50.660;6.778;2024-02-26T08:41:04;9.43;;;4.00;;
11305;SDS011;5708;50.660;6.778;2024-02-26T08:43:30;7.80;;;3.47;;
11305;SDS011;5708;50.660;6.778;2024-02-26T08:45:56;7.90;;;3.90;;
11305;SDS011;5708;50.660;6.778;2024-02-26T08:48:21;9.43;;;3.28;;
11305;SDS011;5708;50.660;6.778;2024-02-26T08:50:47;7.78;;;4.00;;
11305;SDS011;5708;50.660;6.778;2024-02-26T08:53:12;6.70;;;3.75;;
11305;SDS011;5708;50.660;6.778;2024-02-26T08:55:37;8.35;;;4.28;;
11305;SDS011;5708;50.660;6.778;2024-02-26T08:58:03;7.63;;;3.50;;
11305;SDS011;5708;50.660;6.778;2024-02-26T09:00:28;7.57;;;3.92;;
11305;SDS011;5708;50.660;6.778;2024-02-26T09:02:53;7.57;;;4.25;;
11305;SDS011;5708;50.660;6.778;2024-02-26T09:05:19;8.10;;;4.03;;
11305;SDS011;5708;50.660;6.778;2024-02-26T09:07:44;7.18;;;4.25;;
11305;SDS011;5708;50.660;6.778;2024-02-26T09:10:11;8.63;;;3.97;;
11305;SDS011;5708;50.660;6.778;2024-02-26T09:12:37;9.27;;;4.28;;
11305;SDS011;5708;50.660;6.778;2024-02-26T09:15:02;9.75;;;4.93;;
11305;SDS011;5708;50.660;6.778;2024-02-26T09:17:28;8.98;;;4.60;;
11305;SDS011;5708;50.660;6.778;2024-02-26T09:19:54;8.20;;;4.53;;
11305;SDS011;5708;50.660;6.778;2024-02-26T09:22:19;7.85;;;3.95;;
11305;SDS011;5708;50.660;6.778;2024-02-26T09:24:44;8.45;;;4.28;;
11305;SDS011;5708;50.660;6.778;2024-02-26T09:27:10;7.07;;;4.00;;
11305;SDS011;5708;50.660;6.778;2024-02-26T09:29:35;7.40;;;4.10;;
11305;SDS011;5708;50.660;6.778;2024-02-26T09:32:01;8.95;;;4.35;;
11305;SDS011;5708;50.660;6.778;2024-02-26T09:34:26;11.27;;;4.85;;
11305;SDS011;5708;50.660;6.778;2024-02-26T09:36:51;7.85;;;3.97;;
11305;SDS011;5708;50.660;6.778;2024-02-26T09:39:17;7.43;;;3.95;;
11305;SDS011;5708;50.660;6.778;2024-02-26T09:41:46;9.25;;;4.25;;
11305;SDS011;5708;50.660;6.778;2024-02-26T09:44:11;8.70;;;3.92;;
11305;SDS011;5708;50.660;6.778;2024-02-26T09:46:39;10.05;;;4.30;;
11305;SDS011;5708;50.660;6.778;2024-02-26T09:49:05;8.15;;;4.22;;
11305;SDS011;5708;50.660;6.778;2024-02-26T09:51:31;5.95;;;3.72;;
11305;SDS011;5708;50.660;6.778;2024-02-26T09:53:57;7.88;;;4.25;;
11305;SDS011;5708;50.660;6.778;2024-02-26T09:56:24;7.47;;;3.90;;
11305;SDS011;5708;50.660;6.778;2024-02-26T09:58:50;6.72;;;3.55;;
11305;SDS011;5708;50.660;6.778;2024-02-26T10:01:18;6.78;;;4.22;;
11305;SDS011;5708;50.660;6.778;2024-02-26T10:03:44;8.32;;;4.53;;
11305;SDS011;5708;50.660;6.778;2024-02-26T10:06:17;7.82;;;4.20;;
11305;SDS011;5708;50.660;6.778;2024-02-26T10:08:43;8.35;;;4.25;;
11305;SDS011;5708;50.660;6.778;2024-02-26T10:11:08;8.07;;;4.70;;
11305;SDS011;5708;50.660;6.778;2024-02-26T10:13:35;7.00;;;4.18;;
11305;SDS011;5708;50.660;6.778;2024-02-26T10:16:01;9.23;;;4.78;;
11305;SDS011;5708;50.660;6.778;2024-02-26T10:18:44;8.68;;;4.70;;
11305;SDS011;5708;50.660;6.778;2024-02-26T10:21:10;8.65;;;4.95;;
11305;SDS011;5708;50.660;6.778;2024-02-26T10:23:35;10.80;;;4.63;;
11305;SDS011;5708;50.660;6.778;2024-02-26T10:26:00;9.80;;;4.93;;
11305;SDS011;5708;50.660;6.778;2024-02-26T10:28:26;8.63;;;4.75;;
11305;SDS011;5708;50.660;6.778;2024-02-26T10:30:54;8.68;;;4.88;;
11305;SDS011;5708;50.660;6.778;2024-02-26T10:33:20;9.10;;;5.03;;
11305;SDS011;5708;50.660;6.778;2024-02-26T10:35:48;7.93;;;5.15;;
11305;SDS011;5708;50.660;6.778;2024-02-26T10:38:14;9.30;;;4.93;;
11305;SDS011;5708;50.660;6.778;2024-02-26T10:40:42;9.80;;;4.65;;
11305;SDS011;5708;50.660;6.778;2024-02-26T10:43:07;6.90;;;4.57;;
11305;SDS011;5708;50.660;6.778;2024-02-26T10:45:32;9.77;;;4.80;;
11305;SDS011;5708;50.660;6.778;2024-02-26T10:47:58;7.30;;;4.68;;
11305;SDS011;5708;50.660;6.778;2024-02-26T10:50:23;8.02;;;4.82;;
11305;SDS011;5708;50.660;6.778;2024-02-26T10:52:49;7.93;;;4.70;;
11305;SDS011;5708;50.660;6.778;2024-02-26T10:55:17;10.63;;;5.63;;
11305;SDS011;5708;50.660;6.778;2024-02-26T10:57:45;7.43;;;4.60;;
11305;SDS011;5708;50.660;6.778;2024-02-26T11:00:14;7.90;;;4.65;;
11305;SDS011;5708;50.660;6.778;2024-02-26T11:02:40;7.68;;;4.30;;
11305;SDS011;5708;50.660;6.778;2024-02-26T11:05:06;10.45;;;5.88;;
11305;SDS011;5708;50.660;6.778;2024-02-26T11:07:34;11.10;;;5.68;;
11305;SDS011;5708;50.660;6.778;2024-02-26T11:10:00;8.57;;;5.10;;
11305;SDS011;5708;50.660;6.778;2024-02-26T11:12:27;9.20;;;4.82;;
11305;SDS011;5708;50.660;6.778;2024-02-26T11:14:53;7.55;;;5.05;;
11305;SDS011;5708;50.660;6.778;2024-02-26T11:17:21;9.00;;;5.05;;
11305;SDS011;5708;50.660;6.778;2024-02-26T11:19:47;9.13;;;5.05;;
11305;SDS011;5708;50.660;6.778;2024-02-26T11:22:13;8.32;;;5.30;;
11305;SDS011;5708;50.660;6.778;2024-02-26T11:24:38;7.03;;;4.82;;
11305;SDS011;5708;50.660;6.778;2024-02-26T11:27:06;7.40;;;4.95;;
11305;SDS011;5708;50.660;6.778;2024-02-26T11:29:34;8.50;;;5.50;;
11305;SDS011;5708;50.660;6.778;2024-02-26T11:32:03;10.85;;;5.43;;
11305;SDS011;5708;50.660;6.778;2024-02-26T11:34:29;9.15;;;5.38;;
11305;SDS011;5708;50.660;6.778;2024-02-26T11:36:54;12.45;;;5.22;;
11305;SDS011;5708;50.660;6.778;2024-02-26T11:39:20;9.77;;;4.95;;
11305;SDS011;5708;50.660;6.778;2024-02-26T11:41:46;10.32;;;5.40;;
11305;SDS011;5708;50.660;6.778;2024-02-26T11:44:11;9.82;;;5.78;;
11305;SDS011;5708;50.660;6.778;2024-02-26T11:46:40;7.75;;;4.85;;
11305;SDS011;5708;50.660;6.778;2024-02-26T11:51:51;9.05;;;4.85;;
11305;SDS011;5708;50.660;6.778;2024-02-26T12:00:12;9.88;;;5.07;;
11305;SDS011;5708;50.660;6.778;2024-02-26T12:05:20;8.07;;;4.68;;
11305;SDS011;5708;50.660;6.778;2024-02-26T12:08:02;9.07;;;5.07;;
11305;SDS011;5708;50.660;6.778;2024-02-26T12:10:37;8.82;;;4.65;;
11305;SDS011;5708;50.660;6.778;2024-02-26T12:13:08;7.65;;;4.97;;
11305;SDS011;5708;50.660;6.778;2024-02-26T12:15:37;8.85;;;4.40;;
11305;SDS011;5708;50.660;6.778;2024-02-26T12:18:04;9.73;;;4.82;;
11305;SDS011;5708;50.660;6.778;2024-02-26T12:20:32;8.45;;;4.93;;
11305;SDS011;5708;50.660;6.778;2024-02-26T12:22:57;8.00;;;4.28;;
11305;SDS011;5708;50.660;6.778;2024-02-26T12:25:27;7.88;;;4.60;;
11305;SDS011;5708;50.660;6.778;2024-02-26T12:27:53;8.27;;;4.82;;
11305;SDS011;5708;50.660;6.778;2024-02-26T12:30:19;9.25;;;4.35;;
11305;SDS011;5708;50.660;6.778;2024-02-26T12:32:45;7.43;;;4.30;;
11305;SDS011;5708;50.660;6.778;2024-02-26T12:35:11;7.22;;;4.25;;
11305;SDS011;5708;50.660;6.778;2024-02-26T12:37:37;8.00;;;4.50;;
11305;SDS011;5708;50.660;6.778;2024-02-26T12:40:06;8.07;;;4.50;;
11305;SDS011;5708;50.660;6.778;2024-02-26T12:42:34;8.80;;;5.15;;
11305;SDS011;5708;50.660;6.778;2024-02-26T12:45:09;6.95;;;4.57;;
11305;SDS011;5708;50.660;6.778;2024-02-26T12:47:44;7.15;;;4.28;;
11305;SDS011;5708;50.660;6.778;2024-02-26T12:50:15;8.68;;;4.97;;
11305;SDS011;5708;50.660;6.778;2024-02-26T12:52:42;8.38;;;5.03;;
11305;SDS011;5708;50.660;6.778;2024-02-26T12:55:09;9.20;;;5.07;;
11305;SDS011;5708;50.660;6.778;2024-02-26T12:57:38;7.82;;;4.70;;
11305;SDS011;5708;50.660;6.778;2024-02-26T13:00:04;7.00;;;4.25;;
11305;SDS011;5708;50.660;6.778;2024-02-26T13:02:31;8.90;;;4.57;;
11305;SDS011;5708;50.660;6.778;2024-02-26T13:04:57;8.60;;;5.00;;
11305;SDS011;5708;50.660;6.778;2024-02-26T13:07:23;9.90;;;5.03;;
11305;SDS011;5708;50.660;6.778;2024-02-26T13:09:48;7.88;;;4.53;;
11305;SDS011;5708;50.660;6.778;2024-02-26T13:12:13;8.07;;;4.55;;
11305;SDS011;5708;50.660;6.778;2024-02-26T13:14:39;8.93;;;4.85;;
11305;SDS011;5708;50.660;6.778;2024-02-26T13:17:05;9.63;;;5.35;;
11305;SDS011;5708;50.660;6.778;2024-02-26T13:19:30;8.20;;;4.80;;
11305;SDS011;5708;50.660;6.778;2024-02-26T13:21:56;10.93;;;5.10;;
11305;SDS011;5708;50.660;6.778;2024-02-26T13:24:28;10.57;;;5.32;;
11305;SDS011;5708;50.660;6.778;2024-02-26T13:26:56;7.55;;;4.70;;
11305;SDS011;5708;50.660;6.778;2024-02-26T13:29:21;8.48;;;5.00;;
11305;SDS011;5708;50.660;6.778;2024-02-26T13:31:46;8.32;;;5.32;;
11305;SDS011;5708;50.660;6.778;2024-02-26T13:36:50;8.25;;;4.80;;
11305;SDS011;5708;50.660;6.778;2024-02-26T13:39:21;10.77;;;5.05;;
11305;SDS011;5708;50.660;6.778;2024-02-26T13:41:50;7.80;;;4.60;;
11305;SDS011;5708;50.660;6.778;2024-02-26T13:44:19;7.93;;;4.60;;
11305;SDS011;5708;50.660;6.778;2024-02-26T13:46:45;9.48;;;5.13;;
11305;SDS011;5708;50.660;6.778;2024-02-26T13:49:10;8.50;;;5.32;;
11305;SDS011;5708;50.660;6.778;2024-02-26T13:51:36;7.38;;;4.65;;
11305;SDS011;5708;50.660;6.778;2024-02-26T13:54:02;9.25;;;5.20;;
11305;SDS011;5708;50.660;6.778;2024-02-26T13:56:27;7.90;;;4.90;;
11305;SDS011;5708;50.660;6.778;2024-02-26T13:58:53;8.32;;;4.72;;
11305;SDS011;5708;50.660;6.778;2024-02-26T14:01:18;9.63;;;5.07;;
11305;SDS011;5708;50.660;6.778;2024-02-26T14:03:43;7.68;;;4.38;;
11305;SDS011;5708;50.660;6.778;2024-02-26T14:06:09;9.80;;;4.63;;
11305;SDS011;5708;50.660;6.778;2024-02-26T14:08:34;8.05;;;4.45;;
11305;SDS011;5708;50.660;6.778;2024-02-26T14:10:59;10.07;;;5.03;;
11305;SDS011;5708;50.660;6.778;2024-02-26T14:13:25;8.45;;;5.03;;
11305;SDS011;5708;50.660;6.778;2024-02-26T14:15:50;10.02;;;5.50;;
11305;SDS011;5708;50.660;6.778;2024-02-26T14:18:16;10.55;;;4.43;;
11305;SDS011;5708;50.660;6.778;2024-02-26T14:20:41;8.88;;;4.60;;
11305;SDS011;5708;50.660;6.778;2024-02-26T14:23:06;8.63;;;4.68;;
11305;SDS011;5708;50.660;6.778;2024-02-26T14:25:32;7.80;;;4.85;;
11305;SDS011;5708;50.660;6.778;2024-02-26T14:27:57;8.32;;;4.88;;
11305;SDS011;5708;50.660;6.778;2024-02-26T14:30:24;8.45;;;4.78;;
11305;SDS011;5708;50.660;6.778;2024-02-26T14:32:50;8.00;;;4.40;;
11305;SDS011;5708;50.660;6.778;2024-02-26T14:35:16;7.80;;;4.43;;
11305;SDS011;5708;50.660;6.778;2024-02-26T14:37:41;8.32;;;4.80;;
11305;SDS011;5708;50.660;6.778;2024-02-26T14:40:06;8.95;;;5.28;;
11305;SDS011;5708;50.660;6.778;2024-02-26T14:42:33;10.57;;;5.35;;
11305;SDS011;5708;50.660;6.778;2024-02-26T14:44:58;11.02;;;5.40;;
11305;SDS011;5708;50.660;6.778;2024-02-26T14:47:24;9.52;;;5.13;;
11305;SDS011;5708;50.660;6.778;2024-02-26T14:49:50;9.75;;;5.30;;
11305;SDS011;5708;50.660;6.778;2024-02-26T14:52:16;8.60;;;5.22;;
11305;SDS011;5708;50.660;6.778;2024-02-26T14:54:42;8.50;;;5.03;;
11305;SDS011;5708;50.660;6.778;2024-02-26T14:57:08;7.47;;;4.90;;
11305;SDS011;5708;50.660;6.778;2024-02-26T14:59:33;8.32;;;4.78;;
11305;SDS011;5708;50.660;6.778;2024-02-26T15:01:58;9.73;;;5.10;;
11305;SDS011;5708;50.660;6.778;2024-02-26T15:04:27;9.88;;;4.85;;
11305;SDS011;5708;50.660;6.778;2024-02-26T15:06:52;7.82;;;5.10;;